sensor_id;sensor_type;location;lat;lon;timestamp;P1;durP1;ratioP1;P2;durP2;ratioP2
20619;SDS011;10469;42.720;23.252;2023-04-07T00:01:51;19.33;;;7.90;;
20619;SDS011;10469;42.720;23.252;2023-04-07T00:04:16;11.35;;;7.50;;
20619;SDS011;10469;42.720;23.252;2023-04-07T00:06:42;14.65;;;8.52;;
20619;SDS011;10469;42.720;23.252;2023-04-07T00:09:08;15.82;;;7.70;;
20619;SDS011;10469;42.720;23.252;2023-04-07T00:11:37;13.27;;;7.97;;
20619;SDS011;10469;42.720;23.252;2023-04-07T00:14:03;13.57;;;8.00;;
20619;SDS011;10469;42.720;23.252;2023-04-07T00:16:29;12.65;;;7.10;;
20619;SDS011;10469;42.720;23.252;2023-04-07T00:18:55;13.65;;;7.18;;
20619;SDS011;10469;42.720;23.252;2023-04-07T00:21:21;12.93;;;8.23;;
20619;SDS011;10469;42.720;23.252;2023-04-07T00:23:47;13.70;;;7.72;;
20619;SDS011;10469;42.720;23.252;2023-04-07T00:26:13;9.80;;;7.25;;
20619;SDS011;10469;42.720;23.252;2023-04-07T00:28:39;13.38;;;7.80;;
20619;SDS011;10469;42.720;23.252;2023-04-07T00:31:05;11.68;;;7.60;;
20619;SDS011;10469;42.720;23.252;2023-04-07T00:33:31;11.80;;;7.45;;
20619;SDS011;10469;42.720;23.252;2023-04-07T00:35:57;14.15;;;7.55;;
20619;SDS011;10469;42.720;23.252;2023-04-07T00:38:23;14.88;;;7.82;;
20619;SDS011;10469;42.720;23.252;2023-04-07T00:40:49;12.65;;;7.57;;
20619;SDS011;10469;42.720;23.252;2023-04-07T00:43:21;10.80;;;8.23;;
20619;SDS011;10469;42.720;23.252;2023-04-07T00:45:47;11.65;;;7.78;;
20619;SDS011;10469;42.720;23.252;2023-04-07T00:48:12;10.20;;;6.90;;
20619;SDS011;10469;42.720;23.252;2023-04-07T00:50:38;10.50;;;7.15;;
20619;SDS011;10469;42.720;23.252;2023-04-07T00:53:04;9.93;;;7.25;;
20619;SDS011;10469;42.720;23.252;2023-04-07T00:55:30;14.50;;;7.40;;
20619;SDS011;10469;42.720;23.252;2023-04-07T00:57:56;13.30;;;7.75;;
20619;SDS011;10469;42.720;23.252;2023-04-07T01:00:22;8.63;;;6.65;;
20619;SDS011;10469;42.720;23.252;2023-04-07T01:03:33;10.90;;;7.13;;
20619;SDS011;10469;42.720;23.252;2023-04-07T01:05:52;9.75;;;7.15;;
20619;SDS011;10469;42.720;23.252;2023-04-07T01:11:07;12.25;;;6.95;;
20619;SDS011;10469;42.720;23.252;2023-04-07T01:13:47;10.40;;;6.95;;
20619;SDS011;10469;42.720;23.252;2023-04-07T01:17:00;12.23;;;7.33;;
20619;SDS011;10469;42.720;23.252;2023-04-07T01:19:26;9.75;;;7.20;;
20619;SDS011;10469;42.720;23.252;2023-04-07T01:22:27;17.48;;;7.18;;
20619;SDS011;10469;42.720;23.252;2023-04-07T01:30:39;12.95;;;6.88;;
20619;SDS011;10469;42.720;23.252;2023-04-07T01:33:09;12.25;;;6.85;;
20619;SDS011;10469;42.720;23.252;2023-04-07T01:35:36;12.82;;;7.10;;
20619;SDS011;10469;42.720;23.252;2023-04-07T01:38:04;10.75;;;6.35;;
20619;SDS011;10469;42.720;23.252;2023-04-07T01:40:32;10.00;;;6.65;;
20619;SDS011;10469;42.720;23.252;2023-04-07T01:42:59;8.77;;;5.88;;
20619;SDS011;10469;42.720;23.252;2023-04-07T01:45:26;17.05;;;7.63;;
20619;SDS011;10469;42.720;23.252;2023-04-07T01:47:53;12.90;;;6.68;;
20619;SDS011;10469;42.720;23.252;2023-04-07T01:50:20;11.60;;;7.05;;
20619;SDS011;10469;42.720;23.252;2023-04-07T01:52:46;12.48;;;6.90;;
20619;SDS011;10469;42.720;23.252;2023-04-07T01:55:12;11.23;;;6.38;;
20619;SDS011;10469;42.720;23.252;2023-04-07T01:57:38;11.27;;;7.45;;
20619;SDS011;10469;42.720;23.252;2023-04-07T02:00:04;10.48;;;6.68;;
20619;SDS011;10469;42.720;23.252;2023-04-07T02:02:32;12.18;;;6.53;;
20619;SDS011;10469;42.720;23.252;2023-04-07T02:05:05;10.13;;;6.32;;
20619;SDS011;10469;42.720;23.252;2023-04-07T02:07:57;9.50;;;6.47;;
20619;SDS011;10469;42.720;23.252;2023-04-07T02:10:25;11.57;;;7.00;;
20619;SDS011;10469;42.720;23.252;2023-04-07T02:12:54;10.05;;;6.80;;
20619;SDS011;10469;42.720;23.252;2023-04-07T02:15:22;16.05;;;7.22;;
20619;SDS011;10469;42.720;23.252;2023-04-07T02:17:51;9.25;;;6.60;;
20619;SDS011;10469;42.720;23.252;2023-04-07T02:20:19;11.32;;;6.10;;
20619;SDS011;10469;42.720;23.252;2023-04-07T02:22:46;9.95;;;6.97;;
20619;SDS011;10469;42.720;23.252;2023-04-07T02:25:25;9.18;;;6.45;;
20619;SDS011;10469;42.720;23.252;2023-04-07T02:27:53;10.13;;;6.28;;
20619;SDS011;10469;42.720;23.252;2023-04-07T02:30:20;10.40;;;7.00;;
20619;SDS011;10469;42.720;23.252;2023-04-07T02:32:46;11.23;;;6.38;;
20619;SDS011;10469;42.720;23.252;2023-04-07T02:35:12;9.45;;;6.38;;
20619;SDS011;10469;42.720;23.252;2023-04-07T02:37:38;15.65;;;8.00;;
20619;SDS011;10469;42.720;23.252;2023-04-07T02:40:04;18.65;;;9.18;;
20619;SDS011;10469;42.720;23.252;2023-04-07T02:42:31;23.20;;;9.40;;
20619;SDS011;10469;42.720;23.252;2023-04-07T02:44:56;12.40;;;8.00;;
20619;SDS011;10469;42.720;23.252;2023-04-07T02:47:22;19.05;;;10.88;;
20619;SDS011;10469;42.720;23.252;2023-04-07T02:49:49;19.27;;;11.10;;
20619;SDS011;10469;42.720;23.252;2023-04-07T02:52:15;17.40;;;10.20;;
20619;SDS011;10469;42.720;23.252;2023-04-07T02:54:41;16.02;;;9.25;;
20619;SDS011;10469;42.720;23.252;2023-04-07T02:57:07;14.32;;;8.75;;
20619;SDS011;10469;42.720;23.252;2023-04-07T02:59:33;12.70;;;7.32;;
20619;SDS011;10469;42.720;23.252;2023-04-07T03:01:58;10.65;;;6.53;;
20619;SDS011;10469;42.720;23.252;2023-04-07T03:04:24;13.48;;;6.70;;
20619;SDS011;10469;42.720;23.252;2023-04-07T03:06:50;9.52;;;6.18;;
20619;SDS011;10469;42.720;23.252;2023-04-07T03:09:16;11.90;;;6.15;;
20619;SDS011;10469;42.720;23.252;2023-04-07T03:11:41;9.57;;;6.25;;
20619;SDS011;10469;42.720;23.252;2023-04-07T03:14:07;9.02;;;6.10;;
20619;SDS011;10469;42.720;23.252;2023-04-07T03:16:33;11.50;;;6.10;;
20619;SDS011;10469;42.720;23.252;2023-04-07T03:18:58;9.20;;;6.22;;
20619;SDS011;10469;42.720;23.252;2023-04-07T03:21:24;14.32;;;5.85;;
20619;SDS011;10469;42.720;23.252;2023-04-07T03:23:50;9.23;;;5.55;;
20619;SDS011;10469;42.720;23.252;2023-04-07T03:26:15;9.48;;;6.25;;
20619;SDS011;10469;42.720;23.252;2023-04-07T03:28:41;12.90;;;5.68;;
20619;SDS011;10469;42.720;23.252;2023-04-07T03:31:07;10.57;;;6.13;;
20619;SDS011;10469;42.720;23.252;2023-04-07T03:33:32;15.18;;;6.75;;
20619;SDS011;10469;42.720;23.252;2023-04-07T03:35:58;19.67;;;5.65;;
20619;SDS011;10469;42.720;23.252;2023-04-07T03:38:24;11.45;;;5.72;;
20619;SDS011;10469;42.720;23.252;2023-04-07T03:40:51;10.57;;;6.05;;
20619;SDS011;10469;42.720;23.252;2023-04-07T03:43:17;9.43;;;6.47;;
20619;SDS011;10469;42.720;23.252;2023-04-07T03:45:43;10.77;;;6.30;;
20619;SDS011;10469;42.720;23.252;2023-04-07T03:48:08;8.88;;;6.50;;
20619;SDS011;10469;42.720;23.252;2023-04-07T03:50:36;8.65;;;5.72;;
20619;SDS011;10469;42.720;23.252;2023-04-07T03:53:03;9.32;;;6.03;;
20619;SDS011;10469;42.720;23.252;2023-04-07T03:55:29;8.73;;;6.53;;
20619;SDS011;10469;42.720;23.252;2023-04-07T03:57:55;12.55;;;6.40;;
20619;SDS011;10469;42.720;23.252;2023-04-07T04:00:21;11.40;;;6.22;;
20619;SDS011;10469;42.720;23.252;2023-04-07T04:02:46;12.23;;;6.13;;
20619;SDS011;10469;42.720;23.252;2023-04-07T04:05:12;9.00;;;6.40;;
20619;SDS011;10469;42.720;23.252;2023-04-07T04:07:38;12.07;;;5.93;;
20619;SDS011;10469;42.720;23.252;2023-04-07T04:10:03;9.98;;;6.13;;
20619;SDS011;10469;42.720;23.252;2023-04-07T04:12:30;9.32;;;6.65;;
20619;SDS011;10469;42.720;23.252;2023-04-07T04:14:56;10.50;;;6.10;;
20619;SDS011;10469;42.720;23.252;2023-04-07T04:17:22;8.80;;;6.10;;
20619;SDS011;10469;42.720;23.252;2023-04-07T04:19:49;8.85;;;6.25;;
20619;SDS011;10469;42.720;23.252;2023-04-07T04:22:15;20.65;;;9.38;;
20619;SDS011;10469;42.720;23.252;2023-04-07T04:24:41;15.32;;;9.60;;
20619;SDS011;10469;42.720;23.252;2023-04-07T04:27:07;19.35;;;9.38;;
20619;SDS011;10469;42.720;23.252;2023-04-07T04:29:33;17.77;;;10.30;;
20619;SDS011;10469;42.720;23.252;2023-04-07T04:31:59;15.88;;;10.20;;
20619;SDS011;10469;42.720;23.252;2023-04-07T04:34:25;16.77;;;10.00;;
20619;SDS011;10469;42.720;23.252;2023-04-07T04:36:51;17.48;;;9.98;;
20619;SDS011;10469;42.720;23.252;2023-04-07T04:39:17;13.25;;;9.75;;
20619;SDS011;10469;42.720;23.252;2023-04-07T04:41:43;15.25;;;10.07;;
20619;SDS011;10469;42.720;23.252;2023-04-07T04:44:09;23.98;;;9.82;;
20619;SDS011;10469;42.720;23.252;2023-04-07T04:46:36;22.15;;;10.77;;
20619;SDS011;10469;42.720;23.252;2023-04-07T04:49:03;16.77;;;11.02;;
20619;SDS011;10469;42.720;23.252;2023-04-07T04:51:30;21.50;;;11.10;;
20619;SDS011;10469;42.720;23.252;2023-04-07T04:53:58;17.90;;;10.27;;
20619;SDS011;10469;42.720;23.252;2023-04-07T04:56:24;20.85;;;11.50;;
20619;SDS011;10469;42.720;23.252;2023-04-07T04:58:51;19.83;;;10.73;;
20619;SDS011;10469;42.720;23.252;2023-04-07T05:01:17;20.73;;;10.88;;
20619;SDS011;10469;42.720;23.252;2023-04-07T05:03:43;25.00;;;11.15;;
20619;SDS011;10469;42.720;23.252;2023-04-07T05:06:10;18.23;;;10.77;;
20619;SDS011;10469;42.720;23.252;2023-04-07T05:08:36;23.48;;;12.63;;
20619;SDS011;10469;42.720;23.252;2023-04-07T05:11:02;27.90;;;12.68;;
20619;SDS011;10469;42.720;23.252;2023-04-07T05:13:28;17.83;;;11.48;;
20619;SDS011;10469;42.720;23.252;2023-04-07T05:15:55;20.23;;;11.50;;
20619;SDS011;10469;42.720;23.252;2023-04-07T05:18:21;20.55;;;11.98;;
20619;SDS011;10469;42.720;23.252;2023-04-07T05:20:47;29.00;;;11.90;;
20619;SDS011;10469;42.720;23.252;2023-04-07T05:23:13;24.73;;;12.95;;
20619;SDS011;10469;42.720;23.252;2023-04-07T05:25:39;25.75;;;11.80;;
20619;SDS011;10469;42.720;23.252;2023-04-07T05:28:05;24.92;;;11.88;;
20619;SDS011;10469;42.720;23.252;2023-04-07T05:30:31;31.77;;;13.25;;
20619;SDS011;10469;42.720;23.252;2023-04-07T05:32:57;26.80;;;13.75;;
20619;SDS011;10469;42.720;23.252;2023-04-07T05:35:22;24.05;;;12.30;;
20619;SDS011;10469;42.720;23.252;2023-04-07T05:37:48;27.05;;;13.40;;
20619;SDS011;10469;42.720;23.252;2023-04-07T05:40:15;27.38;;;13.35;;
20619;SDS011;10469;42.720;23.252;2023-04-07T05:42:41;28.05;;;13.82;;
20619;SDS011;10469;42.720;23.252;2023-04-07T05:45:07;24.60;;;13.45;;
20619;SDS011;10469;42.720;23.252;2023-04-07T05:47:34;23.10;;;12.80;;
20619;SDS011;10469;42.720;23.252;2023-04-07T05:50:00;28.13;;;13.43;;
20619;SDS011;10469;42.720;23.252;2023-04-07T05:52:26;26.20;;;13.98;;
20619;SDS011;10469;42.720;23.252;2023-04-07T05:54:52;28.58;;;14.13;;
20619;SDS011;10469;42.720;23.252;2023-04-07T05:57:18;39.88;;;15.63;;
20619;SDS011;10469;42.720;23.252;2023-04-07T05:59:43;31.80;;;16.60;;
20619;SDS011;10469;42.720;23.252;2023-04-07T06:02:09;30.25;;;13.88;;
20619;SDS011;10469;42.720;23.252;2023-04-07T06:04:35;24.23;;;12.73;;
20619;SDS011;10469;42.720;23.252;2023-04-07T06:07:03;33.28;;;14.77;;
20619;SDS011;10469;42.720;23.252;2023-04-07T06:09:29;28.17;;;14.40;;
20619;SDS011;10469;42.720;23.252;2023-04-07T06:11:55;29.70;;;12.90;;
20619;SDS011;10469;42.720;23.252;2023-04-07T06:14:21;27.10;;;14.63;;
20619;SDS011;10469;42.720;23.252;2023-04-07T06:16:47;31.58;;;14.68;;
20619;SDS011;10469;42.720;23.252;2023-04-07T06:19:13;27.67;;;14.45;;
20619;SDS011;10469;42.720;23.252;2023-04-07T06:21:39;31.95;;;13.98;;
20619;SDS011;10469;42.720;23.252;2023-04-07T06:24:05;20.50;;;11.50;;
20619;SDS011;10469;42.720;23.252;2023-04-07T06:26:31;14.93;;;9.52;;
20619;SDS011;10469;42.720;23.252;2023-04-07T06:28:58;12.23;;;6.88;;
20619;SDS011;10469;42.720;23.252;2023-04-07T06:31:24;8.45;;;4.85;;
20619;SDS011;10469;42.720;23.252;2023-04-07T06:33:50;6.75;;;4.70;;
20619;SDS011;10469;42.720;23.252;2023-04-07T06:36:16;8.98;;;4.68;;
20619;SDS011;10469;42.720;23.252;2023-04-07T06:38:42;7.55;;;4.70;;
20619;SDS011;10469;42.720;23.252;2023-04-07T06:41:08;13.73;;;5.70;;
20619;SDS011;10469;42.720;23.252;2023-04-07T06:43:37;6.38;;;4.57;;
20619;SDS011;10469;42.720;23.252;2023-04-07T06:46:03;11.20;;;5.32;;
20619;SDS011;10469;42.720;23.252;2023-04-07T06:48:28;10.50;;;6.25;;
20619;SDS011;10469;42.720;23.252;2023-04-07T06:50:57;17.33;;;5.43;;
20619;SDS011;10469;42.720;23.252;2023-04-07T06:53:23;9.50;;;5.70;;
20619;SDS011;10469;42.720;23.252;2023-04-07T06:55:49;9.65;;;5.38;;
20619;SDS011;10469;42.720;23.252;2023-04-07T06:58:14;7.03;;;5.15;;
20619;SDS011;10469;42.720;23.252;2023-04-07T07:00:40;9.20;;;5.05;;
20619;SDS011;10469;42.720;23.252;2023-04-07T07:03:06;12.05;;;7.82;;
20619;SDS011;10469;42.720;23.252;2023-04-07T07:05:32;9.00;;;5.43;;
20619;SDS011;10469;42.720;23.252;2023-04-07T07:07:58;12.27;;;5.55;;
20619;SDS011;10469;42.720;23.252;2023-04-07T07:10:24;6.82;;;5.00;;
20619;SDS011;10469;42.720;23.252;2023-04-07T07:12:50;11.07;;;5.25;;
20619;SDS011;10469;42.720;23.252;2023-04-07T07:15:17;12.95;;;6.32;;
20619;SDS011;10469;42.720;23.252;2023-04-07T07:17:43;11.23;;;5.05;;
20619;SDS011;10469;42.720;23.252;2023-04-07T07:20:09;6.22;;;4.80;;
20619;SDS011;10469;42.720;23.252;2023-04-07T07:22:35;7.95;;;5.20;;
20619;SDS011;10469;42.720;23.252;2023-04-07T07:25:01;9.02;;;5.28;;
20619;SDS011;10469;42.720;23.252;2023-04-07T07:27:27;6.55;;;4.80;;
20619;SDS011;10469;42.720;23.252;2023-04-07T07:29:53;6.82;;;4.65;;
20619;SDS011;10469;42.720;23.252;2023-04-07T07:32:19;7.75;;;4.70;;
20619;SDS011;10469;42.720;23.252;2023-04-07T07:34:51;6.82;;;4.53;;
20619;SDS011;10469;42.720;23.252;2023-04-07T07:37:19;11.05;;;4.80;;
20619;SDS011;10469;42.720;23.252;2023-04-07T07:39:45;17.10;;;4.28;;
20619;SDS011;10469;42.720;23.252;2023-04-07T07:42:11;14.35;;;6.13;;
20619;SDS011;10469;42.720;23.252;2023-04-07T07:44:37;9.65;;;4.95;;
20619;SDS011;10469;42.720;23.252;2023-04-07T07:47:03;6.60;;;4.85;;
20619;SDS011;10469;42.720;23.252;2023-04-07T07:49:28;8.18;;;5.07;;
20619;SDS011;10469;42.720;23.252;2023-04-07T07:51:57;6.70;;;4.65;;
20619;SDS011;10469;42.720;23.252;2023-04-07T07:54:24;7.32;;;4.97;;
20619;SDS011;10469;42.720;23.252;2023-04-07T07:56:50;8.10;;;4.43;;
20619;SDS011;10469;42.720;23.252;2023-04-07T07:59:16;8.05;;;5.20;;
20619;SDS011;10469;42.720;23.252;2023-04-07T08:01:41;7.25;;;4.82;;
20619;SDS011;10469;42.720;23.252;2023-04-07T08:04:07;7.28;;;4.93;;
20619;SDS011;10469;42.720;23.252;2023-04-07T08:06:33;10.30;;;4.95;;
20619;SDS011;10469;42.720;23.252;2023-04-07T08:09:00;12.98;;;5.53;;
20619;SDS011;10469;42.720;23.252;2023-04-07T08:11:26;10.27;;;5.22;;
20619;SDS011;10469;42.720;23.252;2023-04-07T08:13:54;7.20;;;5.43;;
20619;SDS011;10469;42.720;23.252;2023-04-07T08:16:20;8.27;;;5.45;;
20619;SDS011;10469;42.720;23.252;2023-04-07T08:18:47;9.60;;;5.30;;
20619;SDS011;10469;42.720;23.252;2023-04-07T08:21:13;9.20;;;5.57;;
20619;SDS011;10469;42.720;23.252;2023-04-07T08:23:40;7.10;;;4.93;;
20619;SDS011;10469;42.720;23.252;2023-04-07T08:26:06;14.30;;;5.05;;
20619;SDS011;10469;42.720;23.252;2023-04-07T08:28:31;6.38;;;5.20;;
20619;SDS011;10469;42.720;23.252;2023-04-07T08:30:59;6.72;;;4.88;;
20619;SDS011;10469;42.720;23.252;2023-04-07T08:33:25;7.40;;;4.90;;
20619;SDS011;10469;42.720;23.252;2023-04-07T08:35:50;8.13;;;4.97;;
20619;SDS011;10469;42.720;23.252;2023-04-07T08:38:16;7.35;;;4.93;;
20619;SDS011;10469;42.720;23.252;2023-04-07T08:40:42;8.27;;;4.90;;
20619;SDS011;10469;42.720;23.252;2023-04-07T08:43:08;6.25;;;4.70;;
20619;SDS011;10469;42.720;23.252;2023-04-07T08:45:37;10.63;;;6.05;;
20619;SDS011;10469;42.720;23.252;2023-04-07T08:48:08;7.05;;;5.50;;
20619;SDS011;10469;42.720;23.252;2023-04-07T08:50:42;10.80;;;5.35;;
20619;SDS011;10469;42.720;23.252;2023-04-07T08:53:09;7.40;;;5.38;;
20619;SDS011;10469;42.720;23.252;2023-04-07T08:55:39;7.32;;;5.35;;
20619;SDS011;10469;42.720;23.252;2023-04-07T08:58:08;8.63;;;5.60;;
20619;SDS011;10469;42.720;23.252;2023-04-07T09:00:39;8.35;;;5.65;;
20619;SDS011;10469;42.720;23.252;2023-04-07T09:03:07;7.05;;;5.35;;
20619;SDS011;10469;42.720;23.252;2023-04-07T09:05:34;8.27;;;5.45;;
20619;SDS011;10469;42.720;23.252;2023-04-07T09:08:03;9.82;;;5.38;;
20619;SDS011;10469;42.720;23.252;2023-04-07T09:10:28;8.68;;;5.65;;
20619;SDS011;10469;42.720;23.252;2023-04-07T09:12:56;6.72;;;4.95;;
20619;SDS011;10469;42.720;23.252;2023-04-07T09:15:27;9.00;;;5.35;;
20619;SDS011;10469;42.720;23.252;2023-04-07T09:17:56;6.93;;;5.30;;
20619;SDS011;10469;42.720;23.252;2023-04-07T09:20:23;7.40;;;5.85;;
20619;SDS011;10469;42.720;23.252;2023-04-07T09:22:51;6.65;;;5.85;;
20619;SDS011;10469;42.720;23.252;2023-04-07T09:25:18;9.50;;;5.32;;
20619;SDS011;10469;42.720;23.252;2023-04-07T09:27:54;11.52;;;5.72;;
20619;SDS011;10469;42.720;23.252;2023-04-07T09:30:22;8.70;;;4.95;;
20619;SDS011;10469;42.720;23.252;2023-04-07T09:32:49;14.75;;;5.80;;
20619;SDS011;10469;42.720;23.252;2023-04-07T09:35:15;7.28;;;5.45;;
20619;SDS011;10469;42.720;23.252;2023-04-07T09:37:59;9.15;;;5.50;;
20619;SDS011;10469;42.720;23.252;2023-04-07T09:40:26;9.68;;;5.90;;
20619;SDS011;10469;42.720;23.252;2023-04-07T09:42:52;7.30;;;5.88;;
20619;SDS011;10469;42.720;23.252;2023-04-07T09:45:28;7.85;;;5.55;;
20619;SDS011;10469;42.720;23.252;2023-04-07T09:47:56;8.48;;;5.78;;
20619;SDS011;10469;42.720;23.252;2023-04-07T09:50:32;8.65;;;5.82;;
20619;SDS011;10469;42.720;23.252;2023-04-07T09:53:00;7.88;;;5.55;;
20619;SDS011;10469;42.720;23.252;2023-04-07T09:55:27;12.68;;;5.40;;
20619;SDS011;10469;42.720;23.252;2023-04-07T09:57:54;8.02;;;5.85;;
20619;SDS011;10469;42.720;23.252;2023-04-07T10:00:21;9.25;;;6.18;;
20619;SDS011;10469;42.720;23.252;2023-04-07T10:02:47;7.47;;;5.13;;
20619;SDS011;10469;42.720;23.252;2023-04-07T10:05:15;10.52;;;5.57;;
20619;SDS011;10469;42.720;23.252;2023-04-07T10:07:42;8.25;;;5.63;;
20619;SDS011;10469;42.720;23.252;2023-04-07T10:10:10;8.38;;;5.70;;
20619;SDS011;10469;42.720;23.252;2023-04-07T10:12:38;8.57;;;5.68;;
20619;SDS011;10469;42.720;23.252;2023-04-07T10:15:06;6.75;;;5.25;;
20619;SDS011;10469;42.720;23.252;2023-04-07T10:17:42;8.98;;;5.50;;
20619;SDS011;10469;42.720;23.252;2023-04-07T10:20:12;10.88;;;5.82;;
20619;SDS011;10469;42.720;23.252;2023-04-07T10:22:50;9.48;;;5.88;;
20619;SDS011;10469;42.720;23.252;2023-04-07T10:25:22;8.93;;;6.20;;
20619;SDS011;10469;42.720;23.252;2023-04-07T10:28:03;9.85;;;5.68;;
20619;SDS011;10469;42.720;23.252;2023-04-07T10:30:40;10.02;;;6.30;;
20619;SDS011;10469;42.720;23.252;2023-04-07T10:33:07;8.05;;;5.38;;
20619;SDS011;10469;42.720;23.252;2023-04-07T10:38:30;8.52;;;5.65;;
20619;SDS011;10469;42.720;23.252;2023-04-07T10:44:03;8.98;;;5.55;;
20619;SDS011;10469;42.720;23.252;2023-04-07T10:49:10;12.40;;;6.82;;
20619;SDS011;10469;42.720;23.252;2023-04-07T10:51:37;12.23;;;6.18;;
20619;SDS011;10469;42.720;23.252;2023-04-07T10:54:16;9.05;;;5.57;;
20619;SDS011;10469;42.720;23.252;2023-04-07T10:59:40;9.82;;;6.63;;
20619;SDS011;10469;42.720;23.252;2023-04-07T11:04:53;9.55;;;6.72;;
20619;SDS011;10469;42.720;23.252;2023-04-07T11:07:20;7.88;;;5.90;;
20619;SDS011;10469;42.720;23.252;2023-04-07T11:10:13;8.77;;;6.65;;
20619;SDS011;10469;42.720;23.252;2023-04-07T11:15:21;13.20;;;6.43;;
20619;SDS011;10469;42.720;23.252;2023-04-07T11:20:55;8.88;;;5.97;;
20619;SDS011;10469;42.720;23.252;2023-04-07T11:23:41;12.40;;;6.30;;
20619;SDS011;10469;42.720;23.252;2023-04-07T11:26:08;9.63;;;6.25;;
20619;SDS011;10469;42.720;23.252;2023-04-07T11:28:44;12.95;;;6.20;;
20619;SDS011;10469;42.720;23.252;2023-04-07T11:31:27;9.10;;;6.05;;
20619;SDS011;10469;42.720;23.252;2023-04-07T11:33:58;10.02;;;6.50;;
20619;SDS011;10469;42.720;23.252;2023-04-07T11:36:27;10.35;;;7.03;;
20619;SDS011;10469;42.720;23.252;2023-04-07T11:38:55;17.77;;;7.95;;
20619;SDS011;10469;42.720;23.252;2023-04-07T11:41:28;10.25;;;6.85;;
20619;SDS011;10469;42.720;23.252;2023-04-07T11:44:08;13.23;;;7.00;;
20619;SDS011;10469;42.720;23.252;2023-04-07T11:46:52;10.93;;;6.95;;
20619;SDS011;10469;42.720;23.252;2023-04-07T11:49:21;10.80;;;6.85;;
20619;SDS011;10469;42.720;23.252;2023-04-07T11:52:01;8.45;;;6.38;;
20619;SDS011;10469;42.720;23.252;2023-04-07T11:54:41;12.98;;;6.55;;
20619;SDS011;10469;42.720;23.252;2023-04-07T11:57:27;7.95;;;5.82;;
20619;SDS011;10469;42.720;23.252;2023-04-07T12:00:13;10.13;;;6.22;;
20619;SDS011;10469;42.720;23.252;2023-04-07T12:02:40;8.77;;;6.15;;
20619;SDS011;10469;42.720;23.252;2023-04-07T12:05:06;9.52;;;6.05;;
20619;SDS011;10469;42.720;23.252;2023-04-07T12:07:35;9.80;;;6.93;;
20619;SDS011;10469;42.720;23.252;2023-04-07T12:10:21;7.57;;;5.70;;
20619;SDS011;10469;42.720;23.252;2023-04-07T12:12:51;11.90;;;6.40;;
20619;SDS011;10469;42.720;23.252;2023-04-07T12:15:18;9.65;;;6.47;;
20619;SDS011;10469;42.720;23.252;2023-04-07T12:17:45;9.90;;;7.20;;
20619;SDS011;10469;42.720;23.252;2023-04-07T13:28:49;12.73;;;6.20;;
20619;SDS011;10469;42.720;23.252;2023-04-07T13:31:15;9.93;;;6.90;;
20619;SDS011;10469;42.720;23.252;2023-04-07T13:33:42;12.00;;;6.95;;
20619;SDS011;10469;42.720;23.252;2023-04-07T13:36:08;8.07;;;6.47;;
20619;SDS011;10469;42.720;23.252;2023-04-07T13:38:34;12.98;;;7.65;;
20619;SDS011;10469;42.720;23.252;2023-04-07T13:41:01;14.80;;;7.43;;
20619;SDS011;10469;42.720;23.252;2023-04-07T13:43:28;9.48;;;7.07;;
20619;SDS011;10469;42.720;23.252;2023-04-07T13:45:53;14.38;;;6.88;;
20619;SDS011;10469;42.720;23.252;2023-04-07T13:48:20;9.00;;;6.63;;
20619;SDS011;10469;42.720;23.252;2023-04-07T13:50:46;9.20;;;6.82;;
20619;SDS011;10469;42.720;23.252;2023-04-07T13:53:12;10.07;;;7.00;;
20619;SDS011;10469;42.720;23.252;2023-04-07T13:55:38;8.63;;;6.93;;
20619;SDS011;10469;42.720;23.252;2023-04-07T13:58:05;15.35;;;6.93;;
20619;SDS011;10469;42.720;23.252;2023-04-07T14:00:31;10.30;;;6.72;;
20619;SDS011;10469;42.720;23.252;2023-04-07T14:02:59;11.95;;;6.72;;
20619;SDS011;10469;42.720;23.252;2023-04-07T14:05:25;13.52;;;7.70;;
20619;SDS011;10469;42.720;23.252;2023-04-07T14:07:52;10.60;;;7.20;;
20619;SDS011;10469;42.720;23.252;2023-04-07T14:10:18;11.82;;;7.05;;
20619;SDS011;10469;42.720;23.252;2023-04-07T14:12:45;15.77;;;7.90;;
20619;SDS011;10469;42.720;23.252;2023-04-07T14:15:11;15.45;;;6.80;;
20619;SDS011;10469;42.720;23.252;2023-04-07T14:17:37;11.23;;;6.85;;
20619;SDS011;10469;42.720;23.252;2023-04-07T14:20:06;14.02;;;6.95;;
20619;SDS011;10469;42.720;23.252;2023-04-07T14:22:35;12.43;;;7.32;;
20619;SDS011;10469;42.720;23.252;2023-04-07T14:25:01;11.15;;;7.53;;
20619;SDS011;10469;42.720;23.252;2023-04-07T14:27:28;9.25;;;7.10;;
20619;SDS011;10469;42.720;23.252;2023-04-07T14:29:55;10.07;;;7.03;;
20619;SDS011;10469;42.720;23.252;2023-04-07T14:32:23;17.83;;;7.43;;
20619;SDS011;10469;42.720;23.252;2023-04-07T14:34:52;18.20;;;7.88;;
20619;SDS011;10469;42.720;23.252;2023-04-07T14:37:19;10.23;;;7.60;;
20619;SDS011;10469;42.720;23.252;2023-04-07T14:39:51;15.40;;;7.97;;
20619;SDS011;10469;42.720;23.252;2023-04-07T14:42:18;11.23;;;7.53;;
20619;SDS011;10469;42.720;23.252;2023-04-07T14:44:44;11.40;;;7.43;;
20619;SDS011;10469;42.720;23.252;2023-04-07T14:52:24;11.55;;;7.00;;
20619;SDS011;10469;42.720;23.252;2023-04-07T14:54:52;10.18;;;7.55;;
20619;SDS011;10469;42.720;23.252;2023-04-07T14:57:18;12.75;;;7.22;;
20619;SDS011;10469;42.720;23.252;2023-04-07T14:59:43;11.38;;;7.82;;
20619;SDS011;10469;42.720;23.252;2023-04-07T15:02:09;9.88;;;7.03;;
20619;SDS011;10469;42.720;23.252;2023-04-07T15:04:35;13.40;;;7.38;;
20619;SDS011;10469;42.720;23.252;2023-04-07T15:07:01;14.13;;;8.43;;
20619;SDS011;10469;42.720;23.252;2023-04-07T15:09:33;14.93;;;7.55;;
20619;SDS011;10469;42.720;23.252;2023-04-07T15:12:01;13.05;;;7.82;;
20619;SDS011;10469;42.720;23.252;2023-04-07T15:14:29;16.55;;;8.85;;
20619;SDS011;10469;42.720;23.252;2023-04-07T15:16:55;12.50;;;8.82;;
20619;SDS011;10469;42.720;23.252;2023-04-07T15:19:22;11.98;;;8.43;;
20619;SDS011;10469;42.720;23.252;2023-04-07T15:21:48;10.98;;;7.90;;
20619;SDS011;10469;42.720;23.252;2023-04-07T15:24:13;14.35;;;7.72;;
20619;SDS011;10469;42.720;23.252;2023-04-07T15:26:40;13.75;;;8.18;;
20619;SDS011;10469;42.720;23.252;2023-04-07T15:29:05;11.60;;;8.23;;
20619;SDS011;10469;42.720;23.252;2023-04-07T15:31:31;15.85;;;8.73;;
20619;SDS011;10469;42.720;23.252;2023-04-07T15:33:57;10.60;;;7.78;;
20619;SDS011;10469;42.720;23.252;2023-04-07T15:36:23;13.38;;;8.20;;
20619;SDS011;10469;42.720;23.252;2023-04-07T15:38:48;11.80;;;7.43;;
20619;SDS011;10469;42.720;23.252;2023-04-07T15:41:15;16.65;;;8.13;;
20619;SDS011;10469;42.720;23.252;2023-04-07T15:43:42;13.40;;;8.15;;
20619;SDS011;10469;42.720;23.252;2023-04-07T15:46:07;12.45;;;7.88;;
20619;SDS011;10469;42.720;23.252;2023-04-07T15:48:33;16.25;;;8.25;;
20619;SDS011;10469;42.720;23.252;2023-04-07T15:50:59;15.98;;;8.30;;
20619;SDS011;10469;42.720;23.252;2023-04-07T15:53:24;11.57;;;7.78;;
20619;SDS011;10469;42.720;23.252;2023-04-07T15:55:51;11.45;;;7.70;;
20619;SDS011;10469;42.720;23.252;2023-04-07T15:58:17;12.32;;;7.85;;
20619;SDS011;10469;42.720;23.252;2023-04-07T16:00:42;14.50;;;8.27;;
20619;SDS011;10469;42.720;23.252;2023-04-07T16:03:09;16.33;;;7.93;;
20619;SDS011;10469;42.720;23.252;2023-04-07T16:05:35;15.55;;;9.93;;
20619;SDS011;10469;42.720;23.252;2023-04-07T16:08:02;14.95;;;8.73;;
20619;SDS011;10469;42.720;23.252;2023-04-07T16:10:28;11.70;;;7.78;;